sensor_id;sensor_type;location;lat;lon;timestamp;P1;durP1;ratioP1;P2;durP2;ratioP2
40162;SDS011;25881;47.462;19.304;2023-06-22T00:02:18;5.77;;;2.97;;
40162;SDS011;25881;47.462;19.304;2023-06-22T00:04:43;9.17;;;2.80;;
40162;SDS011;25881;47.462;19.304;2023-06-22T00:07:09;6.63;;;2.80;;
40162;SDS011;25881;47.462;19.304;2023-06-22T00:09:34;4.65;;;2.53;;
40162;SDS011;25881;47.462;19.304;2023-06-22T00:11:59;6.20;;;2.87;;
40162;SDS011;25881;47.462;19.304;2023-06-22T00:14:25;7.05;;;2.28;;
40162;SDS011;25881;47.462;19.304;2023-06-22T00:16:50;6.82;;;2.47;;
40162;SDS011;25881;47.462;19.304;2023-06-22T00:19:19;7.30;;;2.83;;
40162;SDS011;25881;47.462;19.304;2023-06-22T00:21:46;6.60;;;2.53;;
40162;SDS011;25881;47.462;19.304;2023-06-22T00:24:12;6.25;;;2.08;;
40162;SDS011;25881;47.462;19.304;2023-06-22T00:26:37;6.07;;;2.20;;
40162;SDS011;25881;47.462;19.304;2023-06-22T00:29:02;5.87;;;3.10;;
40162;SDS011;25881;47.462;19.304;2023-06-22T00:31:27;5.77;;;2.40;;
40162;SDS011;25881;47.462;19.304;2023-06-22T00:33:52;8.07;;;2.47;;
40162;SDS011;25881;47.462;19.304;2023-06-22T00:36:18;5.67;;;2.67;;
40162;SDS011;25881;47.462;19.304;2023-06-22T00:38:44;5.35;;;2.17;;
40162;SDS011;25881;47.462;19.304;2023-06-22T00:41:09;5.33;;;2.90;;
40162;SDS011;25881;47.462;19.304;2023-06-22T00:43:35;6.97;;;2.88;;
40162;SDS011;25881;47.462;19.304;2023-06-22T00:46:00;6.97;;;2.28;;
40162;SDS011;25881;47.462;19.304;2023-06-22T00:48:25;8.73;;;2.73;;
40162;SDS011;25881;47.462;19.304;2023-06-22T00:50:50;6.18;;;2.80;;
40162;SDS011;25881;47.462;19.304;2023-06-22T00:53:18;5.07;;;2.05;;
40162;SDS011;25881;47.462;19.304;2023-06-22T00:55:44;5.53;;;2.15;;
40162;SDS011;25881;47.462;19.304;2023-06-22T00:58:16;5.25;;;2.50;;
40162;SDS011;25881;47.462;19.304;2023-06-22T01:00:41;4.95;;;2.53;;
40162;SDS011;25881;47.462;19.304;2023-06-22T01:03:07;3.40;;;1.88;;
40162;SDS011;25881;47.462;19.304;2023-06-22T01:05:33;5.97;;;2.28;;
40162;SDS011;25881;47.462;19.304;2023-06-22T01:10:30;6.27;;;2.53;;
40162;SDS011;25881;47.462;19.304;2023-06-22T01:15:49;6.25;;;2.45;;
40162;SDS011;25881;47.462;19.304;2023-06-22T01:18:16;4.30;;;2.17;;
40162;SDS011;25881;47.462;19.304;2023-06-22T01:20:42;8.50;;;2.67;;
40162;SDS011;25881;47.462;19.304;2023-06-22T01:25:50;5.00;;;2.35;;
40162;SDS011;25881;47.462;19.304;2023-06-22T01:30:55;6.05;;;3.22;;
40162;SDS011;25881;47.462;19.304;2023-06-22T01:33:31;6.60;;;3.20;;
40162;SDS011;25881;47.462;19.304;2023-06-22T01:35:57;7.55;;;2.85;;
40162;SDS011;25881;47.462;19.304;2023-06-22T01:38:23;12.10;;;4.38;;
40162;SDS011;25881;47.462;19.304;2023-06-22T01:40:49;6.28;;;2.95;;
40162;SDS011;25881;47.462;19.304;2023-06-22T01:43:14;6.88;;;3.28;;
40162;SDS011;25881;47.462;19.304;2023-06-22T01:45:40;5.93;;;3.05;;
40162;SDS011;25881;47.462;19.304;2023-06-22T01:48:05;16.50;;;3.92;;
40162;SDS011;25881;47.462;19.304;2023-06-22T01:50:31;6.68;;;2.72;;
40162;SDS011;25881;47.462;19.304;2023-06-22T01:52:56;4.72;;;2.63;;
40162;SDS011;25881;47.462;19.304;2023-06-22T01:55:21;8.47;;;2.67;;
40162;SDS011;25881;47.462;19.304;2023-06-22T01:57:46;6.87;;;2.30;;
40162;SDS011;25881;47.462;19.304;2023-06-22T02:00:13;4.90;;;2.70;;
40162;SDS011;25881;47.462;19.304;2023-06-22T02:02:43;7.37;;;2.47;;
40162;SDS011;25881;47.462;19.304;2023-06-22T02:05:10;5.90;;;2.70;;
40162;SDS011;25881;47.462;19.304;2023-06-22T02:07:39;6.47;;;2.72;;
40162;SDS011;25881;47.462;19.304;2023-06-22T02:10:06;7.57;;;2.80;;
40162;SDS011;25881;47.462;19.304;2023-06-22T02:12:32;5.45;;;2.60;;
40162;SDS011;25881;47.462;19.304;2023-06-22T02:14:58;6.00;;;2.72;;
40162;SDS011;25881;47.462;19.304;2023-06-22T02:17:26;5.77;;;2.77;;
40162;SDS011;25881;47.462;19.304;2023-06-22T02:19:51;6.38;;;2.35;;
40162;SDS011;25881;47.462;19.304;2023-06-22T02:22:17;6.97;;;2.38;;
40162;SDS011;25881;47.462;19.304;2023-06-22T02:24:42;7.97;;;3.13;;
40162;SDS011;25881;47.462;19.304;2023-06-22T02:27:09;7.43;;;2.15;;
40162;SDS011;25881;47.462;19.304;2023-06-22T02:29:35;6.53;;;2.33;;
40162;SDS011;25881;47.462;19.304;2023-06-22T02:32:00;4.32;;;2.50;;
40162;SDS011;25881;47.462;19.304;2023-06-22T02:34:26;6.47;;;2.43;;
40162;SDS011;25881;47.462;19.304;2023-06-22T02:36:51;6.27;;;2.10;;
40162;SDS011;25881;47.462;19.304;2023-06-22T02:39:20;7.55;;;2.80;;
40162;SDS011;25881;47.462;19.304;2023-06-22T02:41:47;8.55;;;2.92;;
40162;SDS011;25881;47.462;19.304;2023-06-22T02:44:12;8.90;;;2.80;;
40162;SDS011;25881;47.462;19.304;2023-06-22T02:46:37;4.47;;;2.53;;
40162;SDS011;25881;47.462;19.304;2023-06-22T02:49:02;6.17;;;2.30;;
40162;SDS011;25881;47.462;19.304;2023-06-22T02:51:28;8.20;;;2.57;;
40162;SDS011;25881;47.462;19.304;2023-06-22T02:53:53;5.70;;;2.90;;
40162;SDS011;25881;47.462;19.304;2023-06-22T02:56:22;5.72;;;2.63;;
40162;SDS011;25881;47.462;19.304;2023-06-22T02:58:50;7.80;;;2.85;;
40162;SDS011;25881;47.462;19.304;2023-06-22T03:01:15;7.05;;;3.05;;
40162;SDS011;25881;47.462;19.304;2023-06-22T03:03:40;8.83;;;2.50;;
40162;SDS011;25881;47.462;19.304;2023-06-22T03:06:06;7.10;;;2.73;;
40162;SDS011;25881;47.462;19.304;2023-06-22T03:08:31;4.03;;;2.22;;
40162;SDS011;25881;47.462;19.304;2023-06-22T03:10:56;8.30;;;3.10;;
40162;SDS011;25881;47.462;19.304;2023-06-22T03:13:21;5.47;;;2.43;;
40162;SDS011;25881;47.462;19.304;2023-06-22T03:15:47;4.78;;;2.58;;
40162;SDS011;25881;47.462;19.304;2023-06-22T03:18:12;3.90;;;2.30;;
40162;SDS011;25881;47.462;19.304;2023-06-22T03:20:37;6.87;;;2.87;;
40162;SDS011;25881;47.462;19.304;2023-06-22T03:23:03;7.50;;;2.60;;
40162;SDS011;25881;47.462;19.304;2023-06-22T03:25:28;4.95;;;2.17;;
40162;SDS011;25881;47.462;19.304;2023-06-22T03:27:53;5.93;;;1.97;;
40162;SDS011;25881;47.462;19.304;2023-06-22T03:30:18;8.07;;;2.53;;
40162;SDS011;25881;47.462;19.304;2023-06-22T03:32:44;4.60;;;2.38;;
40162;SDS011;25881;47.462;19.304;2023-06-22T03:35:09;4.97;;;2.13;;
40162;SDS011;25881;47.462;19.304;2023-06-22T03:37:37;4.55;;;1.75;;
40162;SDS011;25881;47.462;19.304;2023-06-22T03:40:03;8.97;;;2.60;;
40162;SDS011;25881;47.462;19.304;2023-06-22T03:42:31;5.03;;;2.00;;
40162;SDS011;25881;47.462;19.304;2023-06-22T03:44:56;7.67;;;2.47;;
40162;SDS011;25881;47.462;19.304;2023-06-22T03:47:22;6.53;;;2.43;;
40162;SDS011;25881;47.462;19.304;2023-06-22T03:49:47;5.28;;;1.98;;
40162;SDS011;25881;47.462;19.304;2023-06-22T03:52:12;4.20;;;2.23;;
40162;SDS011;25881;47.462;19.304;2023-06-22T03:54:37;9.53;;;2.90;;
40162;SDS011;25881;47.462;19.304;2023-06-22T03:57:03;7.00;;;2.40;;
40162;SDS011;25881;47.462;19.304;2023-06-22T03:59:28;6.35;;;2.20;;
40162;SDS011;25881;47.462;19.304;2023-06-22T04:01:53;6.97;;;2.27;;
40162;SDS011;25881;47.462;19.304;2023-06-22T04:04:19;4.13;;;2.10;;
40162;SDS011;25881;47.462;19.304;2023-06-22T04:06:45;6.80;;;2.65;;
40162;SDS011;25881;47.462;19.304;2023-06-22T04:09:10;9.80;;;3.08;;
40162;SDS011;25881;47.462;19.304;2023-06-22T04:11:35;7.00;;;2.33;;
40162;SDS011;25881;47.462;19.304;2023-06-22T04:14:00;10.23;;;3.15;;
40162;SDS011;25881;47.462;19.304;2023-06-22T04:16:26;11.80;;;2.95;;
40162;SDS011;25881;47.462;19.304;2023-06-22T04:18:51;6.85;;;2.60;;
40162;SDS011;25881;47.462;19.304;2023-06-22T04:21:16;7.60;;;2.60;;
40162;SDS011;25881;47.462;19.304;2023-06-22T04:23:42;7.22;;;2.40;;
40162;SDS011;25881;47.462;19.304;2023-06-22T04:26:08;5.43;;;3.10;;
40162;SDS011;25881;47.462;19.304;2023-06-22T04:28:33;6.67;;;3.03;;
40162;SDS011;25881;47.462;19.304;2023-06-22T04:31:00;5.47;;;2.78;;
40162;SDS011;25881;47.462;19.304;2023-06-22T04:33:27;8.38;;;3.88;;
40162;SDS011;25881;47.462;19.304;2023-06-22T04:35:52;4.30;;;2.35;;
40162;SDS011;25881;47.462;19.304;2023-06-22T04:38:17;7.77;;;2.63;;
40162;SDS011;25881;47.462;19.304;2023-06-22T04:40:43;6.83;;;2.97;;
40162;SDS011;25881;47.462;19.304;2023-06-22T04:43:08;8.70;;;3.17;;
40162;SDS011;25881;47.462;19.304;2023-06-22T04:45:35;7.88;;;3.60;;
40162;SDS011;25881;47.462;19.304;2023-06-22T04:48:03;8.07;;;3.80;;
40162;SDS011;25881;47.462;19.304;2023-06-22T04:50:28;9.35;;;3.60;;
40162;SDS011;25881;47.462;19.304;2023-06-22T04:52:53;12.17;;;3.90;;
40162;SDS011;25881;47.462;19.304;2023-06-22T04:55:19;9.10;;;3.80;;
40162;SDS011;25881;47.462;19.304;2023-06-22T04:57:45;8.85;;;3.53;;
40162;SDS011;25881;47.462;19.304;2023-06-22T05:00:13;13.45;;;4.28;;
40162;SDS011;25881;47.462;19.304;2023-06-22T05:02:42;9.57;;;4.10;;
40162;SDS011;25881;47.462;19.304;2023-06-22T05:05:08;10.95;;;4.00;;
40162;SDS011;25881;47.462;19.304;2023-06-22T05:07:33;10.63;;;3.83;;
40162;SDS011;25881;47.462;19.304;2023-06-22T05:09:59;8.45;;;4.15;;
40162;SDS011;25881;47.462;19.304;2023-06-22T05:12:24;6.57;;;3.35;;
40162;SDS011;25881;47.462;19.304;2023-06-22T05:14:50;5.77;;;3.30;;
40162;SDS011;25881;47.462;19.304;2023-06-22T05:17:15;6.97;;;3.60;;
40162;SDS011;25881;47.462;19.304;2023-06-22T05:19:44;11.07;;;3.72;;
40162;SDS011;25881;47.462;19.304;2023-06-22T05:22:09;8.15;;;3.47;;
40162;SDS011;25881;47.462;19.304;2023-06-22T05:24:37;9.67;;;3.13;;
40162;SDS011;25881;47.462;19.304;2023-06-22T05:27:02;10.90;;;3.57;;
40162;SDS011;25881;47.462;19.304;2023-06-22T05:29:28;5.78;;;3.28;;
40162;SDS011;25881;47.462;19.304;2023-06-22T05:31:53;8.07;;;3.50;;
40162;SDS011;25881;47.462;19.304;2023-06-22T05:34:18;8.43;;;3.47;;
40162;SDS011;25881;47.462;19.304;2023-06-22T05:36:44;10.13;;;3.93;;
40162;SDS011;25881;47.462;19.304;2023-06-22T05:39:12;10.13;;;3.67;;
40162;SDS011;25881;47.462;19.304;2023-06-22T05:41:41;7.30;;;3.58;;
40162;SDS011;25881;47.462;19.304;2023-06-22T05:44:06;11.32;;;4.40;;
40162;SDS011;25881;47.462;19.304;2023-06-22T05:46:32;7.90;;;3.55;;
40162;SDS011;25881;47.462;19.304;2023-06-22T05:48:57;9.32;;;3.65;;
40162;SDS011;25881;47.462;19.304;2023-06-22T05:51:22;13.17;;;3.47;;
40162;SDS011;25881;47.462;19.304;2023-06-22T05:53:47;9.20;;;3.73;;
40162;SDS011;25881;47.462;19.304;2023-06-22T05:56:15;10.43;;;3.15;;
40162;SDS011;25881;47.462;19.304;2023-06-22T05:58:40;7.20;;;3.63;;
40162;SDS011;25881;47.462;19.304;2023-06-22T06:01:05;8.30;;;3.73;;
40162;SDS011;25881;47.462;19.304;2023-06-22T06:03:31;12.63;;;4.07;;
40162;SDS011;25881;47.462;19.304;2023-06-22T06:05:57;8.07;;;3.72;;
40162;SDS011;25881;47.462;19.304;2023-06-22T06:08:22;9.27;;;4.37;;
40162;SDS011;25881;47.462;19.304;2023-06-22T06:10:47;9.50;;;3.90;;
40162;SDS011;25881;47.462;19.304;2023-06-22T06:13:13;9.55;;;4.32;;
40162;SDS011;25881;47.462;19.304;2023-06-22T06:15:38;10.63;;;4.47;;
40162;SDS011;25881;47.462;19.304;2023-06-22T06:18:03;7.93;;;4.45;;
40162;SDS011;25881;47.462;19.304;2023-06-22T06:20:30;7.70;;;3.15;;
40162;SDS011;25881;47.462;19.304;2023-06-22T06:22:55;7.78;;;3.72;;
40162;SDS011;25881;47.462;19.304;2023-06-22T06:25:21;12.18;;;4.35;;
40162;SDS011;25881;47.462;19.304;2023-06-22T06:27:47;8.23;;;3.70;;
40162;SDS011;25881;47.462;19.304;2023-06-22T06:30:13;11.13;;;4.13;;
40162;SDS011;25881;47.462;19.304;2023-06-22T06:32:38;13.65;;;4.47;;
40162;SDS011;25881;47.462;19.304;2023-06-22T06:35:07;6.90;;;3.60;;
40162;SDS011;25881;47.462;19.304;2023-06-22T06:37:37;7.63;;;3.17;;
40162;SDS011;25881;47.462;19.304;2023-06-22T06:40:06;9.20;;;3.55;;
40162;SDS011;25881;47.462;19.304;2023-06-22T06:42:38;7.53;;;3.10;;
40162;SDS011;25881;47.462;19.304;2023-06-22T06:45:06;9.90;;;3.38;;
40162;SDS011;25881;47.462;19.304;2023-06-22T06:47:31;4.72;;;2.50;;
40162;SDS011;25881;47.462;19.304;2023-06-22T06:49:57;8.97;;;3.40;;
40162;SDS011;25881;47.462;19.304;2023-06-22T06:52:23;4.45;;;2.17;;
40162;SDS011;25881;47.462;19.304;2023-06-22T06:54:48;8.37;;;2.93;;
40162;SDS011;25881;47.462;19.304;2023-06-22T06:57:14;7.30;;;2.37;;
40162;SDS011;25881;47.462;19.304;2023-06-22T06:59:40;4.60;;;2.40;;
40162;SDS011;25881;47.462;19.304;2023-06-22T07:02:06;4.97;;;2.83;;
40162;SDS011;25881;47.462;19.304;2023-06-22T07:04:31;5.83;;;3.13;;
40162;SDS011;25881;47.462;19.304;2023-06-22T07:06:56;4.57;;;2.10;;
40162;SDS011;25881;47.462;19.304;2023-06-22T07:09:21;4.90;;;1.90;;
40162;SDS011;25881;47.462;19.304;2023-06-22T07:11:47;5.67;;;2.17;;
40162;SDS011;25881;47.462;19.304;2023-06-22T07:14:12;8.45;;;1.70;;
40162;SDS011;25881;47.462;19.304;2023-06-22T07:16:37;4.40;;;1.92;;
40162;SDS011;25881;47.462;19.304;2023-06-22T07:19:02;3.13;;;1.67;;
40162;SDS011;25881;47.462;19.304;2023-06-22T07:21:28;3.63;;;1.97;;
40162;SDS011;25881;47.462;19.304;2023-06-22T07:23:53;4.30;;;2.10;;
40162;SDS011;25881;47.462;19.304;2023-06-22T07:26:19;5.22;;;1.80;;
40162;SDS011;25881;47.462;19.304;2023-06-22T07:28:44;5.05;;;1.98;;
40162;SDS011;25881;47.462;19.304;2023-06-22T07:31:09;5.43;;;2.00;;
40162;SDS011;25881;47.462;19.304;2023-06-22T07:33:35;4.60;;;1.60;;
40162;SDS011;25881;47.462;19.304;2023-06-22T07:36:00;6.47;;;1.53;;
40162;SDS011;25881;47.462;19.304;2023-06-22T07:38:25;6.30;;;2.10;;
40162;SDS011;25881;47.462;19.304;2023-06-22T07:40:51;6.90;;;1.90;;
40162;SDS011;25881;47.462;19.304;2023-06-22T07:43:18;8.20;;;2.20;;
40162;SDS011;25881;47.462;19.304;2023-06-22T07:45:47;5.93;;;2.08;;
40162;SDS011;25881;47.462;19.304;2023-06-22T07:48:17;4.80;;;2.15;;
40162;SDS011;25881;47.462;19.304;2023-06-22T07:50:42;3.13;;;2.03;;
40162;SDS011;25881;47.462;19.304;2023-06-22T07:53:07;7.40;;;2.17;;
40162;SDS011;25881;47.462;19.304;2023-06-22T07:55:32;3.87;;;2.00;;
40162;SDS011;25881;47.462;19.304;2023-06-22T07:57:58;3.97;;;2.07;;
40162;SDS011;25881;47.462;19.304;2023-06-22T08:00:23;3.90;;;1.73;;
40162;SDS011;25881;47.462;19.304;2023-06-22T08:02:48;7.93;;;2.70;;
40162;SDS011;25881;47.462;19.304;2023-06-22T08:05:14;3.85;;;2.40;;
40162;SDS011;25881;47.462;19.304;2023-06-22T08:07:39;8.32;;;2.17;;
40162;SDS011;25881;47.462;19.304;2023-06-22T08:10:09;10.77;;;2.67;;
40162;SDS011;25881;47.462;19.304;2023-06-22T08:12:35;7.57;;;2.20;;
40162;SDS011;25881;47.462;19.304;2023-06-22T08:15:00;8.05;;;2.28;;
40162;SDS011;25881;47.462;19.304;2023-06-22T08:17:26;7.57;;;2.93;;
40162;SDS011;25881;47.462;19.304;2023-06-22T08:19:51;5.80;;;2.03;;
40162;SDS011;25881;47.462;19.304;2023-06-22T08:22:16;6.63;;;2.93;;
40162;SDS011;25881;47.462;19.304;2023-06-22T08:24:42;5.82;;;2.33;;
40162;SDS011;25881;47.462;19.304;2023-06-22T08:27:07;6.80;;;2.27;;
40162;SDS011;25881;47.462;19.304;2023-06-22T08:29:40;8.32;;;2.55;;
40162;SDS011;25881;47.462;19.304;2023-06-22T08:32:10;6.75;;;2.38;;
40162;SDS011;25881;47.462;19.304;2023-06-22T08:34:36;4.43;;;2.50;;
40162;SDS011;25881;47.462;19.304;2023-06-22T08:37:01;5.82;;;2.30;;
40162;SDS011;25881;47.462;19.304;2023-06-22T08:39:26;8.97;;;2.47;;
40162;SDS011;25881;47.462;19.304;2023-06-22T08:41:52;4.80;;;2.38;;
40162;SDS011;25881;47.462;19.304;2023-06-22T08:44:18;6.95;;;2.60;;
40162;SDS011;25881;47.462;19.304;2023-06-22T08:46:43;4.50;;;2.22;;
40162;SDS011;25881;47.462;19.304;2023-06-22T08:49:09;7.27;;;2.60;;
40162;SDS011;25881;47.462;19.304;2023-06-22T08:51:35;8.30;;;2.22;;
40162;SDS011;25881;47.462;19.304;2023-06-22T08:54:00;4.78;;;2.03;;
40162;SDS011;25881;47.462;19.304;2023-06-22T08:56:25;7.43;;;3.50;;
40162;SDS011;25881;47.462;19.304;2023-06-22T08:58:50;6.13;;;2.37;;
40162;SDS011;25881;47.462;19.304;2023-06-22T09:01:15;5.77;;;2.43;;
40162;SDS011;25881;47.462;19.304;2023-06-22T09:03:41;7.93;;;2.03;;
40162;SDS011;25881;47.462;19.304;2023-06-22T09:06:06;8.10;;;2.63;;
40162;SDS011;25881;47.462;19.304;2023-06-22T09:08:34;6.22;;;2.28;;
40162;SDS011;25881;47.462;19.304;2023-06-22T09:10:59;8.73;;;3.10;;
40162;SDS011;25881;47.462;19.304;2023-06-22T09:13:24;4.63;;;2.40;;
40162;SDS011;25881;47.462;19.304;2023-06-22T09:15:50;7.43;;;2.70;;
40162;SDS011;25881;47.462;19.304;2023-06-22T09:18:15;7.47;;;3.50;;
40162;SDS011;25881;47.462;19.304;2023-06-22T09:20:40;8.53;;;3.20;;
40162;SDS011;25881;47.462;19.304;2023-06-22T09:23:06;9.93;;;3.40;;
40162;SDS011;25881;47.462;19.304;2023-06-22T09:25:31;4.37;;;2.83;;
40162;SDS011;25881;47.462;19.304;2023-06-22T09:27:56;7.33;;;3.47;;
40162;SDS011;25881;47.462;19.304;2023-06-22T09:30:21;6.10;;;3.10;;
40162;SDS011;25881;47.462;19.304;2023-06-22T09:32:47;7.40;;;3.78;;
40162;SDS011;25881;47.462;19.304;2023-06-22T09:35:12;7.60;;;3.50;;
40162;SDS011;25881;47.462;19.304;2023-06-22T09:37:38;6.07;;;3.47;;
40162;SDS011;25881;47.462;19.304;2023-06-22T09:40:03;6.00;;;3.40;;
40162;SDS011;25881;47.462;19.304;2023-06-22T09:42:35;8.57;;;4.10;;
40162;SDS011;25881;47.462;19.304;2023-06-22T09:45:00;6.15;;;4.28;;
40162;SDS011;25881;47.462;19.304;2023-06-22T09:47:26;7.53;;;4.20;;
40162;SDS011;25881;47.462;19.304;2023-06-22T09:49:52;6.45;;;4.25;;
40162;SDS011;25881;47.462;19.304;2023-06-22T09:52:17;8.77;;;4.88;;
40162;SDS011;25881;47.462;19.304;2023-06-22T09:54:42;9.17;;;4.20;;
40162;SDS011;25881;47.462;19.304;2023-06-22T09:57:07;6.43;;;4.30;;
40162;SDS011;25881;47.462;19.304;2023-06-22T09:59:34;9.20;;;4.25;;
40162;SDS011;25881;47.462;19.304;2023-06-22T10:01:59;8.07;;;4.23;;
40162;SDS011;25881;47.462;19.304;2023-06-22T10:04:24;11.63;;;4.28;;
40162;SDS011;25881;47.462;19.304;2023-06-22T10:06:50;7.70;;;4.32;;
40162;SDS011;25881;47.462;19.304;2023-06-22T10:09:15;6.30;;;4.00;;
40162;SDS011;25881;47.462;19.304;2023-06-22T10:11:41;7.50;;;4.23;;
40162;SDS011;25881;47.462;19.304;2023-06-22T10:14:06;6.47;;;3.87;;
40162;SDS011;25881;47.462;19.304;2023-06-22T10:16:31;8.17;;;4.53;;
40162;SDS011;25881;47.462;19.304;2023-06-22T10:18:56;6.65;;;4.57;;
40162;SDS011;25881;47.462;19.304;2023-06-22T10:21:22;10.53;;;4.53;;
40162;SDS011;25881;47.462;19.304;2023-06-22T10:23:47;7.43;;;4.80;;
40162;SDS011;25881;47.462;19.304;2023-06-22T10:26:12;8.07;;;4.33;;
40162;SDS011;25881;47.462;19.304;2023-06-22T10:28:37;7.07;;;4.37;;
40162;SDS011;25881;47.462;19.304;2023-06-22T10:31:03;7.60;;;4.73;;
40162;SDS011;25881;47.462;19.304;2023-06-22T10:33:28;7.27;;;4.60;;
40162;SDS011;25881;47.462;19.304;2023-06-22T10:35:53;9.27;;;5.20;;
40162;SDS011;25881;47.462;19.304;2023-06-22T10:38:18;9.60;;;5.10;;
40162;SDS011;25881;47.462;19.304;2023-06-22T10:40:44;6.97;;;5.37;;
40162;SDS011;25881;47.462;19.304;2023-06-22T10:43:09;8.10;;;5.10;;
40162;SDS011;25881;47.462;19.304;2023-06-22T10:45:34;8.23;;;4.70;;
40162;SDS011;25881;47.462;19.304;2023-06-22T10:47:59;8.53;;;4.37;;
40162;SDS011;25881;47.462;19.304;2023-06-22T10:50:25;9.30;;;4.85;;
40162;SDS011;25881;47.462;19.304;2023-06-22T10:52:51;7.72;;;4.97;;
40162;SDS011;25881;47.462;19.304;2023-06-22T10:55:16;9.67;;;5.20;;
40162;SDS011;25881;47.462;19.304;2023-06-22T10:57:42;7.70;;;4.77;;
40162;SDS011;25881;47.462;19.304;2023-06-22T11:00:09;7.78;;;4.47;;
40162;SDS011;25881;47.462;19.304;2023-06-22T11:02:36;8.52;;;5.13;;
40162;SDS011;25881;47.462;19.304;2023-06-22T11:05:01;9.50;;;4.63;;
40162;SDS011;25881;47.462;19.304;2023-06-22T11:07:26;8.30;;;4.60;;
40162;SDS011;25881;47.462;19.304;2023-06-22T11:09:53;9.68;;;5.15;;
40162;SDS011;25881;47.462;19.304;2023-06-22T11:12:19;10.70;;;5.38;;
40162;SDS011;25881;47.462;19.304;2023-06-22T11:14:44;7.07;;;5.03;;
40162;SDS011;25881;47.462;19.304;2023-06-22T11:17:09;9.13;;;5.00;;
40162;SDS011;25881;47.462;19.304;2023-06-22T11:19:35;7.27;;;4.73;;
40162;SDS011;25881;47.462;19.304;2023-06-22T11:22:01;9.88;;;4.90;;
40162;SDS011;25881;47.462;19.304;2023-06-22T11:24:26;10.13;;;5.28;;
40162;SDS011;25881;47.462;19.304;2023-06-22T11:26:52;8.43;;;4.63;;
40162;SDS011;25881;47.462;19.304;2023-06-22T11:29:17;7.90;;;5.00;;
40162;SDS011;25881;47.462;19.304;2023-06-22T11:31:42;8.98;;;4.93;;
40162;SDS011;25881;47.462;19.304;2023-06-22T11:34:08;9.95;;;4.90;;
40162;SDS011;25881;47.462;19.304;2023-06-22T11:36:33;8.37;;;5.10;;
40162;SDS011;25881;47.462;19.304;2023-06-22T11:39:00;13.13;;;4.80;;
40162;SDS011;25881;47.462;19.304;2023-06-22T11:41:26;7.47;;;4.15;;
40162;SDS011;25881;47.462;19.304;2023-06-22T11:43:51;9.63;;;4.97;;
40162;SDS011;25881;47.462;19.304;2023-06-22T11:46:16;10.00;;;5.07;;
40162;SDS011;25881;47.462;19.304;2023-06-22T11:48:41;11.18;;;5.63;;
40162;SDS011;25881;47.462;19.304;2023-06-22T11:51:07;7.78;;;4.70;;
40162;SDS011;25881;47.462;19.304;2023-06-22T11:53:33;8.35;;;5.38;;
40162;SDS011;25881;47.462;19.304;2023-06-22T11:55:59;6.97;;;4.90;;
40162;SDS011;25881;47.462;19.304;2023-06-22T11:58:25;8.98;;;5.28;;
40162;SDS011;25881;47.462;19.304;2023-06-22T12:00:50;9.17;;;5.67;;
40162;SDS011;25881;47.462;19.304;2023-06-22T12:03:17;8.38;;;5.18;;
40162;SDS011;25881;47.462;19.304;2023-06-22T12:05:42;8.30;;;4.72;;
40162;SDS011;25881;47.462;19.304;2023-06-22T12:08:07;9.73;;;5.30;;
40162;SDS011;25881;47.462;19.304;2023-06-22T12:10:33;8.70;;;4.50;;
40162;SDS011;25881;47.462;19.304;2023-06-22T12:12:59;7.47;;;4.57;;
40162;SDS011;25881;47.462;19.304;2023-06-22T12:15:25;8.23;;;5.13;;
40162;SDS011;25881;47.462;19.304;2023-06-22T12:17:50;8.30;;;4.95;;
40162;SDS011;25881;47.462;19.304;2023-06-22T12:20:15;7.90;;;4.77;;
40162;SDS011;25881;47.462;19.304;2023-06-22T12:22:41;11.23;;;4.90;;
40162;SDS011;25881;47.462;19.304;2023-06-22T12:25:06;10.45;;;4.78;;
40162;SDS011;25881;47.462;19.304;2023-06-22T12:27:32;8.80;;;5.20;;
40162;SDS011;25881;47.462;19.304;2023-06-22T12:29:57;11.23;;;5.05;;
40162;SDS011;25881;47.462;19.304;2023-06-22T12:32:22;11.53;;;4.37;;
40162;SDS011;25881;47.462;19.304;2023-06-22T12:34:47;8.63;;;4.28;;
40162;SDS011;25881;47.462;19.304;2023-06-22T12:37:13;8.03;;;4.37;;
40162;SDS011;25881;47.462;19.304;2023-06-22T12:39:40;7.57;;;4.88;;
40162;SDS011;25881;47.462;19.304;2023-06-22T12:42:05;9.05;;;5.13;;
40162;SDS011;25881;47.462;19.304;2023-06-22T12:44:33;10.85;;;4.60;;
40162;SDS011;25881;47.462;19.304;2023-06-22T12:46:58;9.20;;;4.73;;
40162;SDS011;25881;47.462;19.304;2023-06-22T12:49:24;9.82;;;4.75;;
40162;SDS011;25881;47.462;19.304;2023-06-22T12:51:49;6.80;;;4.47;;
40162;SDS011;25881;47.462;19.304;2023-06-22T12:54:14;8.77;;;4.43;;
40162;SDS011;25881;47.462;19.304;2023-06-22T12:56:39;7.43;;;4.40;;
40162;SDS011;25881;47.462;19.304;2023-06-22T12:59:05;7.63;;;4.22;;
40162;SDS011;25881;47.462;19.304;2023-06-22T13:01:31;10.13;;;4.85;;
40162;SDS011;25881;47.462;19.304;2023-06-22T13:03:57;8.80;;;4.78;;
40162;SDS011;25881;47.462;19.304;2023-06-22T13:06:22;7.88;;;4.35;;
40162;SDS011;25881;47.462;19.304;2023-06-22T13:08:47;9.23;;;4.60;;
40162;SDS011;25881;47.462;19.304;2023-06-22T13:11:13;7.20;;;4.57;;
40162;SDS011;25881;47.462;19.304;2023-06-22T13:13:38;6.80;;;4.53;;
40162;SDS011;25881;47.462;19.304;2023-06-22T13:16:04;9.25;;;4.40;;
40162;SDS011;25881;47.462;19.304;2023-06-22T13:18:29;7.70;;;4.50;;
40162;SDS011;25881;47.462;19.304;2023-06-22T13:20:54;8.73;;;4.50;;
40162;SDS011;25881;47.462;19.304;2023-06-22T13:23:20;7.10;;;4.20;;
40162;SDS011;25881;47.462;19.304;2023-06-22T13:25:46;6.95;;;4.20;;
40162;SDS011;25881;47.462;19.304;2023-06-22T13:28:11;10.73;;;4.20;;
40162;SDS011;25881;47.462;19.304;2023-06-22T13:30:38;7.97;;;4.15;;
40162;SDS011;25881;47.462;19.304;2023-06-22T13:33:03;6.80;;;4.10;;
40162;SDS011;25881;47.462;19.304;2023-06-22T13:35:29;6.33;;;3.83;;
40162;SDS011;25881;47.462;19.304;2023-06-22T13:37:54;6.77;;;4.13;;
40162;SDS011;25881;47.462;19.304;2023-06-22T13:40:19;6.27;;;4.03;;
40162;SDS011;25881;47.462;19.304;2023-06-22T13:42:44;7.70;;;4.00;;
40162;SDS011;25881;47.462;19.304;2023-06-22T13:45:10;8.23;;;4.40;;
40162;SDS011;25881;47.462;19.304;2023-06-22T13:47:35;7.30;;;4.28;;
40162;SDS011;25881;47.462;19.304;2023-06-22T13:50:00;5.93;;;3.92;;
40162;SDS011;25881;47.462;19.304;2023-06-22T13:52:26;7.67;;;4.00;;
40162;SDS011;25881;47.462;19.304;2023-06-22T13:54:51;9.30;;;4.00;;
40162;SDS011;25881;47.462;19.304;2023-06-22T13:57:16;6.17;;;4.00;;
40162;SDS011;25881;47.462;19.304;2023-06-22T13:59:41;6.47;;;4.20;;
40162;SDS011;25881;47.462;19.304;2023-06-22T14:02:07;7.03;;;4.22;;
40162;SDS011;25881;47.462;19.304;2023-06-22T14:04:32;6.63;;;3.93;;
40162;SDS011;25881;47.462;19.304;2023-06-22T14:06:57;7.70;;;4.20;;
40162;SDS011;25881;47.462;19.304;2023-06-22T14:09:23;9.00;;;4.03;;
40162;SDS011;25881;47.462;19.304;2023-06-22T14:11:48;8.68;;;4.32;;
40162;SDS011;25881;47.462;19.304;2023-06-22T14:14:13;8.07;;;4.33;;
40162;SDS011;25881;47.462;19.304;2023-06-22T14:16:38;7.20;;;4.50;;
40162;SDS011;25881;47.462;19.304;2023-06-22T14:19:04;10.80;;;5.07;;
40162;SDS011;25881;47.462;19.304;2023-06-22T14:21:29;9.03;;;4.50;;
40162;SDS011;25881;47.462;19.304;2023-06-22T14:23:54;7.97;;;4.77;;
40162;SDS011;25881;47.462;19.304;2023-06-22T14:26:20;9.10;;;4.20;;
40162;SDS011;25881;47.462;19.304;2023-06-22T14:28:45;11.13;;;4.22;;
40162;SDS011;25881;47.462;19.304;2023-06-22T14:31:15;7.45;;;4.60;;
40162;SDS011;25881;47.462;19.304;2023-06-22T14:33:41;6.03;;;3.88;;
40162;SDS011;25881;47.462;19.304;2023-06-22T14:36:06;9.00;;;4.33;;